createdAt,value
2023-11-26T00:02:21.813Z,10.60
2023-11-26T00:04:48.639Z,13.88
2023-11-26T00:07:15.630Z,6.00
2023-11-26T00:09:42.164Z,9.85
2023-11-26T00:12:10.140Z,10.32
2023-11-26T00:14:38.116Z,9.15
2023-11-26T00:17:04.844Z,11.32
2023-11-26T00:19:32.148Z,8.07
2023-11-26T00:21:58.775Z,6.65
2023-11-26T00:24:25.517Z,10.43
2023-11-26T00:26:52.557Z,9.57
2023-11-26T00:29:20.495Z,13.77
2023-11-26T00:31:47.111Z,9.02
2023-11-26T00:34:13.680Z,17.25
2023-11-26T00:36:40.256Z,10.57
2023-11-26T00:39:06.964Z,11.25
2023-11-26T00:41:33.521Z,11.75
2023-11-26T00:44:00.107Z,13.80
2023-11-26T00:46:28.185Z,12.48
2023-11-26T00:48:54.748Z,12.65
2023-11-26T00:51:21.958Z,10.40
2023-11-26T00:53:51.606Z,12.05
2023-11-26T00:56:18.480Z,13.18
2023-11-26T00:58:45.025Z,6.55
2023-11-26T01:01:11.671Z,10.20
2023-11-26T01:03:39.712Z,11.27
2023-11-26T01:06:06.814Z,8.60
2023-11-26T01:08:33.404Z,10.23
2023-11-26T01:11:00.392Z,10.88
2023-11-26T01:13:27.023Z,12.63
2023-11-26T01:15:53.623Z,12.10
2023-11-26T01:18:20.236Z,12.48
2023-11-26T01:20:48.157Z,8.73
2023-11-26T01:23:14.712Z,14.90
2023-11-26T01:25:41.388Z,17.05
2023-11-26T01:28:08.009Z,8.25
2023-11-26T01:30:34.620Z,10.48
2023-11-26T01:33:01.776Z,10.90
2023-11-26T01:35:28.450Z,14.77
2023-11-26T01:37:56.477Z,16.65
2023-11-26T01:40:23.073Z,16.20
2023-11-26T01:42:49.663Z,12.25
2023-11-26T01:45:16.274Z,10.90
2023-11-26T01:47:43.082Z,15.93
2023-11-26T01:50:12.958Z,11.88
2023-11-26T01:52:39.540Z,12.90
2023-11-26T01:55:08.275Z,12.77
2023-11-26T01:57:34.893Z,11.90
2023-11-26T02:00:01.722Z,9.90
2023-11-26T02:02:28.530Z,7.63
2023-11-26T02:04:55.236Z,12.40
2023-11-26T02:07:21.788Z,6.75
2023-11-26T02:09:48.586Z,8.38
2023-11-26T02:12:16.489Z,5.90
2023-11-26T02:14:48.521Z,7.75
2023-11-26T02:17:16.060Z,9.15
2023-11-26T02:19:42.690Z,11.18
2023-11-26T02:22:09.612Z,8.95
2023-11-26T02:24:41.738Z,11.65
2023-11-26T02:27:08.331Z,9.88
2023-11-26T02:29:34.914Z,10.02
2023-11-26T02:32:01.746Z,9.98
2023-11-26T02:34:28.445Z,8.70
2023-11-26T02:36:55.040Z,10.93
2023-11-26T02:39:21.657Z,13.93
2023-11-26T02:41:49.548Z,12.98
2023-11-26T02:44:16.122Z,11.02
2023-11-26T02:46:44.200Z,8.50
2023-11-26T02:49:10.865Z,15.18
2023-11-26T02:51:37.785Z,9.27
2023-11-26T02:54:04.520Z,12.93
2023-11-26T02:56:31.352Z,12.00
2023-11-26T02:58:59.312Z,10.73
2023-11-26T03:01:30.781Z,11.05
2023-11-26T03:03:57.670Z,18.08
2023-11-26T03:06:27.325Z,9.13
2023-11-26T03:09:01.585Z,9.65
2023-11-26T03:11:47.272Z,13.68
2023-11-26T03:14:15.713Z,13.50
2023-11-26T03:16:46.008Z,11.90
2023-11-26T03:19:13.225Z,13.98
2023-11-26T03:21:44.282Z,17.08
2023-11-26T03:24:13.336Z,17.10
2023-11-26T03:26:40.773Z,18.75
2023-11-26T03:29:07.411Z,14.98
2023-11-26T03:31:35.489Z,13.60
2023-11-26T03:34:09.264Z,15.23
2023-11-26T03:39:03.177Z,13.77
2023-11-26T03:41:29.831Z,17.25
2023-11-26T03:43:56.484Z,21.58
2023-11-26T03:46:23.918Z,12.57
2023-11-26T03:48:53.093Z,15.48
2023-11-26T03:51:21.950Z,18.90
2023-11-26T03:53:48.914Z,10.88
2023-11-26T03:56:15.875Z,17.38
2023-11-26T03:58:42.617Z,10.98
2023-11-26T04:01:09.385Z,16.23
2023-11-26T04:03:36.122Z,13.77
2023-11-26T04:06:04.490Z,10.07
2023-11-26T04:08:31.387Z,15.43
2023-11-26T04:10:57.961Z,14.68
2023-11-26T04:13:26.204Z,14.00
2023-11-26T04:15:58.601Z,12.48
2023-11-26T04:18:29.545Z,11.90
2023-11-26T04:20:56.683Z,9.68
2023-11-26T04:23:24.688Z,10.60
2023-11-26T04:25:51.673Z,12.00
2023-11-26T04:28:18.205Z,15.52
2023-11-26T04:30:44.986Z,17.40
2023-11-26T04:33:11.696Z,17.63
2023-11-26T04:35:38.860Z,13.15
2023-11-26T04:38:05.500Z,16.17
2023-11-26T04:40:33.531Z,13.65
2023-11-26T04:43:00.156Z,18.38
2023-11-26T04:45:27.174Z,19.65
2023-11-26T04:47:54.105Z,15.13
2023-11-26T04:50:21.055Z,19.25
2023-11-26T04:52:47.687Z,16.15
2023-11-26T04:55:14.364Z,17.17
2023-11-26T04:57:42.290Z,14.05
2023-11-26T05:00:13.031Z,20.50
2023-11-26T05:02:41.173Z,18.45
2023-11-26T05:05:10.055Z,15.05
2023-11-26T05:07:37.631Z,16.23
2023-11-26T05:10:07.087Z,21.42
2023-11-26T05:12:34.244Z,18.55
2023-11-26T05:15:02.494Z,19.98
2023-11-26T05:17:29.436Z,22.88
2023-11-26T05:19:56.087Z,23.65
2023-11-26T05:22:23.708Z,25.83
2023-11-26T05:27:16.860Z,23.77
2023-11-26T05:29:43.528Z,22.23
2023-11-26T05:32:11.997Z,25.02
2023-11-26T05:34:38.611Z,21.63
2023-11-26T05:37:05.432Z,24.30
2023-11-26T05:39:32.045Z,19.30
2023-11-26T05:41:58.589Z,26.40
2023-11-26T05:44:25.255Z,23.83
2023-11-26T05:46:51.843Z,24.77
2023-11-26T05:49:19.980Z,24.98
2023-11-26T05:51:46.647Z,22.50
2023-11-26T05:54:13.323Z,19.58
2023-11-26T05:56:43.711Z,32.78
2023-11-26T05:59:10.252Z,17.92
2023-11-26T06:01:36.839Z,18.17
2023-11-26T06:04:04.351Z,25.17
2023-11-26T06:06:32.322Z,17.40
2023-11-26T06:08:58.933Z,22.65
2023-11-26T06:11:25.498Z,24.45
2023-11-26T06:13:52.152Z,22.35
2023-11-26T06:16:18.804Z,23.20
2023-11-26T06:18:45.491Z,20.15
2023-11-26T06:21:14.715Z,21.95
2023-11-26T06:23:42.685Z,22.95
2023-11-26T06:26:09.297Z,22.65
2023-11-26T06:28:37.415Z,23.40
2023-11-26T06:31:04.715Z,25.38
2023-11-26T06:33:31.352Z,19.80
2023-11-26T06:35:58.005Z,21.85
2023-11-26T06:38:25.549Z,23.98
2023-11-26T06:40:53.539Z,23.45
2023-11-26T06:43:20.131Z,19.30
2023-11-26T06:45:46.917Z,21.73
2023-11-26T06:48:13.626Z,22.65
2023-11-26T06:50:40.245Z,24.40
2023-11-26T06:53:06.845Z,26.73
2023-11-26T06:55:33.431Z,22.30
2023-11-26T06:58:01.363Z,25.60
2023-11-26T07:00:28.043Z,23.05
2023-11-26T07:02:54.728Z,25.30
2023-11-26T07:05:21.877Z,25.30
2023-11-26T07:07:48.502Z,25.73
2023-11-26T07:10:15.481Z,23.45
2023-11-26T07:12:42.084Z,19.52
2023-11-26T07:15:11.346Z,23.48
2023-11-26T07:17:38.123Z,19.73
2023-11-26T07:20:06.612Z,27.10
2023-11-26T07:22:33.285Z,19.52
2023-11-26T07:25:00.632Z,19.73
2023-11-26T07:27:27.287Z,24.67
2023-11-26T07:29:53.951Z,26.38
2023-11-26T07:32:22.079Z,21.73
2023-11-26T07:34:48.783Z,26.00
2023-11-26T07:37:15.349Z,25.98
2023-11-26T07:39:41.987Z,24.35
2023-11-26T07:42:09.016Z,27.70
2023-11-26T07:44:35.726Z,31.10
2023-11-26T07:47:03.010Z,27.20
2023-11-26T07:49:32.457Z,23.35
2023-11-26T07:51:59.236Z,28.75
2023-11-26T07:54:26.209Z,29.40
2023-11-26T07:56:52.967Z,26.38
2023-11-26T07:59:19.585Z,25.98
2023-11-26T08:01:50.769Z,27.02
2023-11-26T08:04:18.588Z,24.77
2023-11-26T08:06:48.232Z,24.60
2023-11-26T08:09:15.631Z,26.25
2023-11-26T08:11:44.864Z,27.35
2023-11-26T08:14:13.549Z,28.35
2023-11-26T08:16:40.575Z,27.10
2023-11-26T08:19:13.441Z,30.92
2023-11-26T08:21:40.879Z,28.05
2023-11-26T08:24:15.105Z,26.02
2023-11-26T08:26:42.642Z,29.13
2023-11-26T08:29:10.823Z,32.70
2023-11-26T08:31:40.701Z,30.35
2023-11-26T08:34:08.693Z,26.70
2023-11-26T08:36:37.074Z,27.92
2023-11-26T08:39:05.900Z,29.92
2023-11-26T08:41:33.811Z,27.38
2023-11-26T08:44:01.551Z,29.33
2023-11-26T08:46:29.533Z,35.00
2023-11-26T08:48:57.350Z,33.40
2023-11-26T08:51:26.668Z,29.70
2023-11-26T08:53:54.032Z,28.92
2023-11-26T08:56:21.944Z,28.25
2023-11-26T08:58:49.984Z,23.77
2023-11-26T09:01:16.742Z,25.30
2023-11-26T09:03:43.426Z,25.92
2023-11-26T09:06:10.333Z,25.02
2023-11-26T09:08:36.913Z,25.23
2023-11-26T09:11:04.221Z,22.30
2023-11-26T09:13:31.434Z,23.83
2023-11-26T09:16:00.600Z,21.70
2023-11-26T09:18:27.353Z,18.13
2023-11-26T09:20:54.007Z,20.77
2023-11-26T09:23:20.593Z,19.42
2023-11-26T09:25:47.174Z,20.85
2023-11-26T09:28:13.831Z,19.27
2023-11-26T09:30:40.595Z,22.95
2023-11-26T09:33:10.654Z,19.35
2023-11-26T09:35:37.403Z,20.60
2023-11-26T09:38:04.426Z,19.85
2023-11-26T09:40:30.945Z,22.55
2023-11-26T09:42:57.967Z,22.58
2023-11-26T09:45:24.808Z,18.92
2023-11-26T09:47:51.445Z,24.35
2023-11-26T09:50:19.487Z,18.45
2023-11-26T09:52:48.982Z,21.58
2023-11-26T09:55:15.534Z,19.83
2023-11-26T09:57:42.224Z,23.48
2023-11-26T10:00:11.866Z,23.98
2023-11-26T10:02:39.057Z,19.00
2023-11-26T10:05:07.709Z,17.75
2023-11-26T10:07:37.156Z,19.63
2023-11-26T10:10:14.209Z,17.30
2023-11-26T10:12:52.902Z,18.08
2023-11-26T10:15:21.377Z,16.60
2023-11-26T10:18:04.024Z,18.77
2023-11-26T10:20:31.088Z,18.00
2023-11-26T10:22:59.244Z,20.10
2023-11-26T10:25:26.047Z,19.77
2023-11-26T10:27:52.823Z,16.30
2023-11-26T10:30:28.975Z,18.35
2023-11-26T10:32:57.867Z,17.95
2023-11-26T10:35:24.604Z,20.75
2023-11-26T10:37:51.557Z,17.98
2023-11-26T10:40:19.537Z,14.65
2023-11-26T10:42:46.229Z,18.58
2023-11-26T10:45:13.064Z,18.08
2023-11-26T10:47:42.200Z,18.80
2023-11-26T10:50:13.170Z,18.20
2023-11-26T10:52:47.343Z,16.42
2023-11-26T10:55:18.082Z,17.90
2023-11-26T10:57:50.482Z,20.45
2023-11-26T11:00:19.822Z,16.92
2023-11-26T11:02:47.082Z,17.88
2023-11-26T11:05:13.993Z,17.65
2023-11-26T11:07:41.260Z,19.00
2023-11-26T11:10:16.504Z,21.00
2023-11-26T11:12:54.505Z,19.98
2023-11-26T11:15:22.790Z,20.65
2023-11-26T11:17:49.543Z,18.77
2023-11-26T11:20:16.244Z,20.35
2023-11-26T11:22:43.188Z,20.45
2023-11-26T11:25:11.348Z,18.33
2023-11-26T11:27:55.291Z,19.98
2023-11-26T11:30:52.633Z,15.25
2023-11-26T11:33:19.339Z,16.88
2023-11-26T11:35:47.644Z,17.75
2023-11-26T11:38:16.826Z,16.88
2023-11-26T11:41:03.863Z,22.95
2023-11-26T11:43:32.063Z,15.25
2023-11-26T11:46:00.878Z,15.02
2023-11-26T11:48:55.023Z,15.88
2023-11-26T11:51:35.231Z,18.20
2023-11-26T11:54:18.047Z,15.55
2023-11-26T11:56:45.958Z,14.05
2023-11-26T11:59:14.300Z,13.65
2023-11-26T12:01:43.417Z,16.33
2023-11-26T12:04:12.615Z,12.27
2023-11-26T12:06:42.289Z,14.73
2023-11-26T12:09:12.496Z,12.90
2023-11-26T12:11:43.150Z,13.05
2023-11-26T12:14:09.730Z,11.85
2023-11-26T12:16:37.762Z,12.50
2023-11-26T12:19:07.157Z,13.63
2023-11-26T12:21:33.734Z,10.50
2023-11-26T12:24:00.337Z,8.85
2023-11-26T12:26:34.558Z,13.63
2023-11-26T12:29:01.091Z,13.73
2023-11-26T12:31:27.701Z,12.57
2023-11-26T12:33:56.054Z,11.32
2023-11-26T12:36:22.917Z,9.32
2023-11-26T12:38:49.993Z,13.20
2023-11-26T12:41:16.934Z,10.20
2023-11-26T12:43:44.125Z,10.98
2023-11-26T12:46:11.404Z,14.07
2023-11-26T12:48:39.370Z,10.77
2023-11-26T12:51:07.851Z,13.23
2023-11-26T12:53:34.997Z,14.50
2023-11-26T12:56:01.938Z,12.10
2023-11-26T12:58:31.278Z,12.52
2023-11-26T13:00:58.216Z,12.75
2023-11-26T13:03:24.931Z,13.05
2023-11-26T13:05:52.431Z,13.27
2023-11-26T13:10:52.525Z,12.20
2023-11-26T13:13:22.461Z,13.57
2023-11-26T13:15:49.545Z,12.27
2023-11-26T13:18:16.943Z,11.55
2023-11-26T13:20:48.148Z,14.00
2023-11-26T13:23:14.813Z,14.15
2023-11-26T13:25:43.005Z,12.40
2023-11-26T13:28:09.612Z,13.80
2023-11-26T13:30:40.162Z,14.43
2023-11-26T13:33:07.534Z,13.40
2023-11-26T13:35:34.489Z,14.00
2023-11-26T13:38:02.315Z,9.73
2023-11-26T13:40:31.196Z,14.90
2023-11-26T13:43:00.691Z,12.55
2023-11-26T13:45:27.261Z,10.52
2023-11-26T13:48:05.033Z,11.57
2023-11-26T13:50:36.995Z,12.40
2023-11-26T13:53:06.066Z,11.95
2023-11-26T13:55:32.609Z,12.45
2023-11-26T13:58:02.785Z,13.93
2023-11-26T14:00:29.906Z,12.20
2023-11-26T14:02:56.542Z,14.05
2023-11-26T14:05:24.312Z,16.55
2023-11-26T14:07:52.905Z,13.68
2023-11-26T14:10:21.924Z,15.68
2023-11-26T14:12:49.867Z,12.88
2023-11-26T14:15:18.009Z,13.02
2023-11-26T14:17:45.510Z,13.50
2023-11-26T14:22:43.238Z,15.02
2023-11-26T14:25:12.874Z,18.92
2023-11-26T14:27:39.517Z,16.27
2023-11-26T14:30:07.597Z,18.58
2023-11-26T14:32:35.525Z,22.33
2023-11-26T14:35:02.821Z,20.02
2023-11-26T14:37:29.363Z,26.95
2023-11-26T14:39:57.523Z,23.80
2023-11-26T14:42:24.120Z,17.80
2023-11-26T14:44:50.693Z,18.35
2023-11-26T14:47:19.362Z,24.90
2023-11-26T14:49:47.262Z,23.15
2023-11-26T14:52:13.913Z,22.15
2023-11-26T14:54:44.002Z,17.85
2023-11-26T14:57:11.260Z,24.13
2023-11-26T14:59:37.908Z,20.00
2023-11-26T15:02:04.619Z,22.15
2023-11-26T15:04:31.883Z,25.58
2023-11-26T15:06:59.870Z,28.27
2023-11-26T15:09:26.566Z,22.25
2023-11-26T15:11:53.100Z,21.48
2023-11-26T15:14:19.757Z,19.67
2023-11-26T15:16:46.349Z,20.02
2023-11-26T15:19:12.987Z,22.83
2023-11-26T15:21:39.612Z,19.13
2023-11-26T15:24:07.658Z,23.98
2023-11-26T15:26:34.187Z,17.58
2023-11-26T15:29:00.771Z,14.63
2023-11-26T15:31:28.181Z,28.13
2023-11-26T15:33:55.038Z,25.70
2023-11-26T15:36:21.773Z,19.40
2023-11-26T15:38:49.051Z,25.77
2023-11-26T15:41:21.700Z,25.40
2023-11-26T15:43:48.379Z,27.02
2023-11-26T15:46:19.177Z,30.42
2023-11-26T15:48:46.103Z,18.67
2023-11-26T15:51:12.681Z,22.58
2023-11-26T15:53:39.804Z,19.15
2023-11-26T15:56:07.550Z,16.63
2023-11-26T15:58:35.463Z,17.08
2023-11-26T16:01:03.387Z,18.92
2023-11-26T16:03:30.469Z,18.00
2023-11-26T16:05:57.103Z,26.02
2023-11-26T16:08:23.743Z,19.88
2023-11-26T16:10:50.344Z,20.95
2023-11-26T16:13:18.111Z,12.18
2023-11-26T16:15:46.087Z,18.08
2023-11-26T16:18:12.802Z,18.63
2023-11-26T16:20:39.376Z,14.48
2023-11-26T16:23:06.692Z,18.65
2023-11-26T16:25:33.460Z,17.27
2023-11-26T16:28:00.136Z,13.00
2023-11-26T16:30:26.764Z,15.02
2023-11-26T16:32:56.791Z,16.77
2023-11-26T16:35:23.717Z,14.27
2023-11-26T16:37:50.235Z,19.77
2023-11-26T16:40:17.118Z,17.83
2023-11-26T16:42:44.105Z,18.80
2023-11-26T16:45:10.851Z,13.70
2023-11-26T16:47:38.161Z,16.27
2023-11-26T16:50:07.779Z,17.92
2023-11-26T16:52:34.407Z,18.10
2023-11-26T16:55:01.340Z,18.02
2023-11-26T16:57:27.976Z,13.55
2023-11-26T16:59:54.607Z,13.82
2023-11-26T17:02:21.845Z,12.73
2023-11-26T17:04:48.534Z,12.93
2023-11-26T17:07:16.676Z,17.83
2023-11-26T17:09:43.693Z,14.30
2023-11-26T17:12:10.764Z,12.40
2023-11-26T17:14:37.810Z,14.35
2023-11-26T17:17:04.549Z,11.52
2023-11-26T17:19:31.998Z,19.92
2023-11-26T17:21:58.555Z,12.90
2023-11-26T17:24:26.750Z,12.68
2023-11-26T17:26:53.838Z,17.27
2023-11-26T17:29:20.461Z,14.95
2023-11-26T17:31:47.068Z,13.10
2023-11-26T17:34:13.735Z,18.55
2023-11-26T17:36:42.379Z,14.57
2023-11-26T17:39:10.158Z,18.52
2023-11-26T17:41:38.045Z,16.23
2023-11-26T17:44:05.011Z,17.13
2023-11-26T17:46:31.662Z,13.88
2023-11-26T17:48:58.260Z,18.80
2023-11-26T17:51:24.866Z,16.67
2023-11-26T17:53:51.447Z,16.92
2023-11-26T17:56:18.015Z,15.95
2023-11-26T17:58:46.139Z,18.70
2023-11-26T18:01:15.872Z,15.93
2023-11-26T18:03:42.876Z,19.92
2023-11-26T18:06:09.970Z,21.33
2023-11-26T18:08:36.593Z,17.80
2023-11-26T18:11:06.827Z,18.08
2023-11-26T18:13:33.452Z,20.67
2023-11-26T18:16:01.353Z,17.27
2023-11-26T18:18:27.970Z,22.00
2023-11-26T18:20:54.753Z,18.27
2023-11-26T18:23:21.348Z,17.50
2023-11-26T18:25:47.976Z,16.77
2023-11-26T18:28:14.564Z,16.00
2023-11-26T18:30:41.190Z,19.90
2023-11-26T18:33:09.187Z,13.15
2023-11-26T18:35:35.837Z,13.80
2023-11-26T18:38:02.421Z,11.98
2023-11-26T18:40:29.432Z,13.38
2023-11-26T18:42:56.339Z,17.38
2023-11-26T18:45:24.050Z,13.77
2023-11-26T18:47:53.471Z,10.82
2023-11-26T18:50:21.451Z,14.43
2023-11-26T18:52:48.369Z,13.90
2023-11-26T18:55:15.647Z,12.77
2023-11-26T18:57:42.324Z,12.63
2023-11-26T19:00:10.424Z,14.88
2023-11-26T19:02:37.161Z,11.48
2023-11-26T19:05:04.084Z,12.43
2023-11-26T19:07:32.076Z,11.63
2023-11-26T19:09:59.969Z,11.02
2023-11-26T19:12:26.558Z,14.82
2023-11-26T19:14:55.119Z,12.20
2023-11-26T19:17:21.772Z,11.02
2023-11-26T19:19:48.478Z,12.13
2023-11-26T19:22:15.145Z,15.20
2023-11-26T19:24:43.123Z,11.38
2023-11-26T19:27:09.657Z,11.00
2023-11-26T19:29:36.198Z,10.95
2023-11-26T19:32:02.770Z,12.43
2023-11-26T19:34:29.453Z,7.68
2023-11-26T19:36:56.079Z,11.90
2023-11-26T19:39:22.680Z,10.98
2023-11-26T19:41:50.632Z,8.98
2023-11-26T19:44:17.219Z,7.80
2023-11-26T19:46:43.863Z,9.68
2023-11-26T19:49:10.605Z,7.60
2023-11-26T19:51:37.494Z,12.75
2023-11-26T19:54:05.302Z,10.65
2023-11-26T19:56:31.841Z,10.23
2023-11-26T19:59:00.396Z,9.07
2023-11-26T20:01:27.224Z,10.05
2023-11-26T20:03:54.493Z,11.10
2023-11-26T20:06:21.523Z,6.90
2023-11-26T20:08:48.092Z,8.20
2023-11-26T20:11:14.840Z,7.93
2023-11-26T20:13:41.580Z,12.85
2023-11-26T20:16:13.304Z,10.30
2023-11-26T20:18:40.488Z,11.30
2023-11-26T20:21:10.325Z,9.45
2023-11-26T20:23:37.154Z,12.10
2023-11-26T20:26:03.806Z,8.20
2023-11-26T20:28:30.423Z,6.68
2023-11-26T20:31:08.084Z,12.95
2023-11-26T20:33:38.716Z,10.00
2023-11-26T20:36:06.221Z,7.72
2023-11-26T20:38:32.789Z,10.15
2023-11-26T20:40:59.720Z,11.45
2023-11-26T20:43:26.296Z,9.18
2023-11-26T20:45:53.044Z,7.45
2023-11-26T20:48:19.666Z,9.43
2023-11-26T20:50:47.595Z,12.55
2023-11-26T20:53:17.134Z,10.80
2023-11-26T20:55:44.237Z,10.18
2023-11-26T20:58:10.877Z,12.52
2023-11-26T21:00:38.216Z,10.38
2023-11-26T21:03:05.002Z,7.55
2023-11-26T21:05:34.746Z,8.35
2023-11-26T21:08:02.941Z,9.57
2023-11-26T21:10:29.560Z,11.70
2023-11-26T21:12:58.002Z,10.45
2023-11-26T21:15:24.659Z,11.13
2023-11-26T21:17:51.342Z,8.65
2023-11-26T21:20:18.105Z,7.15
2023-11-26T21:22:45.256Z,8.27
2023-11-26T21:25:13.309Z,6.53
2023-11-26T21:27:40.135Z,7.28
2023-11-26T21:32:34.960Z,8.02
2023-11-26T21:35:01.726Z,7.10
2023-11-26T21:37:29.922Z,7.22
2023-11-26T21:39:56.786Z,9.23
2023-11-26T21:42:24.698Z,5.88
2023-11-26T21:44:51.277Z,6.55
2023-11-26T21:47:17.912Z,7.85
2023-11-26T21:49:44.543Z,6.13
2023-11-26T21:52:13.345Z,10.35
2023-11-26T21:54:40.643Z,10.10
2023-11-26T21:57:07.311Z,10.32
2023-11-26T21:59:36.305Z,8.38
2023-11-26T22:02:03.632Z,8.00
2023-11-26T22:04:30.572Z,7.72
2023-11-26T22:06:57.224Z,8.55
2023-11-26T22:09:23.968Z,8.43
2023-11-26T22:11:50.532Z,8.32
2023-11-26T22:14:17.035Z,8.88
2023-11-26T22:16:46.232Z,9.00
2023-11-26T22:19:13.108Z,8.45
2023-11-26T22:21:39.831Z,9.18
2023-11-26T22:24:08.536Z,7.47
2023-11-26T22:26:38.019Z,6.47
2023-11-26T22:29:05.649Z,9.27
2023-11-26T22:31:34.978Z,12.32
2023-11-26T22:34:03.247Z,11.00
2023-11-26T22:36:33.127Z,8.40
2023-11-26T22:39:00.061Z,7.95
2023-11-26T22:41:28.223Z,6.68
2023-11-26T22:43:59.226Z,6.63
2023-11-26T22:46:27.691Z,7.82
2023-11-26T22:48:55.785Z,9.20
2023-11-26T22:51:23.868Z,8.43
2023-11-26T22:53:51.380Z,7.97
2023-11-26T22:58:45.674Z,5.25
2023-11-26T23:01:12.387Z,9.82
2023-11-26T23:03:39.194Z,9.45
2023-11-26T23:06:09.589Z,7.45
2023-11-26T23:08:40.086Z,7.72
2023-11-26T23:11:07.133Z,13.00
2023-11-26T23:13:37.246Z,12.27
2023-11-26T23:16:04.616Z,10.52
2023-11-26T23:18:31.746Z,9.40
2023-11-26T23:20:59.050Z,7.32
2023-11-26T23:23:37.746Z,8.80
2023-11-26T23:26:10.258Z,10.93
2023-11-26T23:28:36.877Z,8.75
2023-11-26T23:31:03.714Z,8.48
2023-11-26T23:33:30.435Z,12.93
2023-11-26T23:35:57.048Z,6.60
2023-11-26T23:38:23.659Z,11.52
2023-11-26T23:40:50.590Z,9.63
2023-11-26T23:43:19.130Z,12.48
2023-11-26T23:45:46.095Z,6.90
2023-11-26T23:48:12.761Z,12.43
2023-11-26T23:50:39.412Z,11.82
2023-11-26T23:53:07.256Z,6.45
2023-11-26T23:55:34.108Z,9.38
2023-11-26T23:58:01.020Z,7.38
